Time;durP1;ratioP1;P1;durP2;ratioP2;P2;SDS_P1;SDS_P2;PMS_P1;PMS_P2;Temp;Humidity;BMP_temperature;BMP_pressure;BME280_temperature;BME280_humidity;BME280_pressure;Samples;Min_cycle;Max_cycle;Signal;HPM_P1;HPM_P2
2022/05/24 00:00:28;;;;;;;7.82;5.75;;;16.00;71.60;;;;;;5040535;28;20037;-78
2022/05/24 00:02:54;;;;;;;7.10;5.90;;;16.00;71.40;;;;;;5069776;28;20041;-79
2022/05/24 00:05:21;;;;;;;6.28;5.75;;;16.00;71.80;;;;;;5036996;28;20518;-78
2022/05/24 00:07:47;;;;;;;6.18;5.68;;;15.90;71.40;;;;;;5038318;28;20132;-79
2022/05/24 00:10:15;;;;;;;5.93;5.50;;;15.80;72.50;;;;;;5040739;28;20045;-79
2022/05/24 00:12:42;;;;;;;6.20;5.70;;;15.70;72.20;;;;;;5041625;28;20021;-79
2022/05/24 00:15:19;;;;;;;6.47;5.88;;;15.70;72.70;;;;;;5033645;28;20129;-78
2022/05/24 00:18:06;;;;;;;10.13;6.07;;;15.70;72.50;;;;;;5009770;28;20021;-78
2022/05/24 00:20:35;;;;;;;6.47;5.97;;;15.70;72.20;;;;;;5009264;28;20049;-78
2022/05/24 00:23:01;;;;;;;6.20;5.70;;;15.80;71.90;;;;;;5045219;28;20181;-78
2022/05/24 00:25:27;;;;;;;6.15;5.65;;;15.80;71.90;;;;;;5045936;28;20491;-78
2022/05/24 00:27:54;;;;;;;6.30;5.90;;;15.80;71.90;;;;;;5013478;28;20041;-78
2022/05/24 00:30:20;;;;;;;7.35;6.00;;;15.70;72.30;;;;;;5045011;28;20068;-78
2022/05/24 00:32:46;;;;;;;6.50;6.00;;;15.60;72.30;;;;;;4995608;28;20428;-78
2022/05/24 00:35:13;;;;;;;6.30;5.82;;;15.50;72.50;;;;;;4980485;28;20057;-78
2022/05/24 00:37:39;;;;;;;6.93;5.90;;;15.50;72.50;;;;;;5012453;28;20045;-78
2022/05/24 00:40:07;;;;;;;6.38;5.80;;;15.40;72.90;;;;;;4996945;28;20037;-78
2022/05/24 00:42:33;;;;;;;6.93;6.20;;;15.30;73.00;;;;;;5007356;28;20507;-78
2022/05/24 00:45:12;;;;;;;6.88;6.22;;;15.30;74.30;;;;;;4994574;28;20487;-78
2022/05/24 00:47:54;;;;;;;8.35;6.00;;;15.30;73.00;;;;;;5016062;28;20037;-78
2022/05/24 00:50:25;;;;;;;8.27;6.00;;;15.40;72.80;;;;;;4995138;28;20064;-78
2022/05/24 00:53:06;;;;;;;6.38;5.80;;;15.40;72.50;;;;;;5012776;28;20026;-79
2022/05/24 00:55:40;;;;;;;7.15;5.95;;;15.40;72.40;;;;;;4984908;28;20018;-78
2022/05/24 00:58:19;;;;;;;6.07;5.68;;;15.30;72.60;;;;;;4988768;28;20038;-78
2022/05/24 01:00:46;;;;;;;6.80;6.15;;;15.30;72.40;;;;;;5000995;28;20041;-79
2022/05/24 01:03:12;;;;;;;6.35;5.75;;;15.30;72.40;;;;;;5022797;28;20026;-78
2022/05/24 01:05:38;;;;;;;6.38;5.85;;;15.30;72.80;;;;;;5023359;28;20056;-78
2022/05/24 01:08:04;;;;;;;7.93;6.38;;;15.30;72.10;;;;;;5022418;28;20060;-78
2022/05/24 01:10:33;;;;;;;6.97;6.10;;;15.30;72.20;;;;;;5021199;28;20057;-78
2022/05/24 01:13:06;;;;;;;6.68;6.10;;;15.30;71.80;;;;;;5018844;28;20029;-78
2022/05/24 01:15:33;;;;;;;6.63;5.97;;;15.30;72.20;;;;;;5018808;28;20038;-78
2022/05/24 01:17:59;;;;;;;6.50;5.90;;;15.30;72.10;;;;;;5023790;28;20049;-78
2022/05/24 01:20:26;;;;;;;6.32;5.82;;;15.30;72.20;;;;;;5023469;28;20025;-77
2022/05/24 01:23:04;;;;;;;6.68;6.15;;;15.20;71.70;;;;;;5022573;28;20414;-78
2022/05/24 01:25:48;;;;;;;6.43;5.82;;;15.30;71.80;;;;;;5021201;28;20029;-78
2022/05/24 01:28:19;;;;;;;7.63;6.10;;;15.30;71.80;;;;;;5019155;28;20052;-78
2022/05/24 01:30:45;;;;;;;6.78;6.18;;;15.30;71.60;;;;;;5016315;28;20042;-78
2022/05/24 01:36:11;;;;;;;6.10;5.70;;;15.20;71.40;;;;;;4996154;28;20783;-78
2022/05/24 01:38:43;;;;;;;8.30;5.80;;;15.10;72.10;;;;;;5009305;28;20048;-79
2022/05/24 01:41:10;;;;;;;6.72;6.05;;;15.00;72.10;;;;;;5000449;28;20504;-78
2022/05/24 01:43:37;;;;;;;7.00;6.00;;;15.00;72.10;;;;;;4987146;28;20484;-78
2022/05/24 01:46:05;;;;;;;6.43;5.82;;;15.00;72.00;;;;;;4995769;28;20045;-78
2022/05/24 01:49:10;;;;;;;6.85;6.00;;;15.00;71.90;;;;;;4994395;28;20039;-78
2022/05/24 01:51:43;;;;;;;8.10;5.85;;;14.90;72.20;;;;;;4934533;29;20405;-78
2022/05/24 01:54:10;;;;;;;6.13;5.53;;;15.00;72.40;;;;;;4935818;28;20043;-78
2022/05/24 01:56:57;;;;;;;6.60;5.85;;;15.00;71.50;;;;;;4935531;29;20488;-78
2022/05/24 01:59:23;;;;;;;6.35;5.70;;;15.10;71.50;;;;;;4934901;29;20028;-78
2022/05/24 02:01:56;;;;;;;6.20;5.80;;;15.00;71.50;;;;;;4925257;28;20047;-78
2022/05/24 02:04:23;;;;;;;6.15;5.40;;;15.10;71.40;;;;;;4948307;29;20036;-78
2022/05/24 02:07:06;;;;;;;6.22;5.75;;;15.10;71.30;;;;;;4959784;28;20035;-78
2022/05/24 02:09:37;;;;;;;6.97;5.70;;;15.10;71.10;;;;;;4959341;28;20059;-78
2022/05/24 02:12:07;;;;;;;6.25;5.70;;;15.10;71.10;;;;;;4959939;28;20386;-78
2022/05/24 02:14:35;;;;;;;6.75;6.15;;;15.10;71.30;;;;;;4947307;29;20032;-78
2022/05/24 02:17:09;;;;;;;6.07;5.57;;;15.10;71.10;;;;;;4954951;28;20039;-78
2022/05/24 02:19:37;;;;;;;7.35;5.55;;;15.00;71.30;;;;;;4936357;29;20035;-77
2022/05/24 02:22:07;;;;;;;6.53;5.90;;;15.00;71.60;;;;;;4939327;29;20043;-78
2022/05/24 02:24:33;;;;;;;6.13;5.63;;;14.90;71.50;;;;;;4934684;29;20042;-78
2022/05/24 02:26:59;;;;;;;8.65;5.80;;;14.90;71.60;;;;;;4976627;28;20065;-78
2022/05/24 02:29:25;;;;;;;6.93;6.20;;;14.90;71.80;;;;;;5004824;28;20036;-77
2022/05/24 02:31:51;;;;;;;6.47;5.65;;;14.90;71.80;;;;;;5026123;28;20404;-77
2022/05/24 02:34:18;;;;;;;6.38;5.88;;;14.90;71.80;;;;;;5029416;28;20025;-77
2022/05/24 02:36:44;;;;;;;5.95;5.50;;;14.90;71.80;;;;;;5028119;28;20060;-77
2022/05/24 02:39:10;;;;;;;10.88;5.90;;;14.80;71.60;;;;;;5031633;28;20033;-77
2022/05/24 02:41:36;;;;;;;6.30;5.60;;;14.80;72.10;;;;;;5027687;28;20037;-77
2022/05/24 02:44:04;;;;;;;6.13;5.60;;;14.70;72.10;;;;;;5027903;28;20046;-77
2022/05/24 02:46:31;;;;;;;6.43;5.72;;;14.70;72.20;;;;;;5030662;28;20041;-77
2022/05/24 02:48:57;;;;;;;7.00;5.70;;;14.70;72.10;;;;;;5028945;28;20037;-78
2022/05/24 02:51:23;;;;;;;6.40;5.80;;;14.70;72.20;;;;;;5028770;28;20045;-77
2022/05/24 02:53:50;;;;;;;6.72;6.05;;;14.70;72.10;;;;;;5030643;28;20025;-77
2022/05/24 02:56:16;;;;;;;6.15;5.55;;;14.70;72.50;;;;;;5029955;28;20045;-77
2022/05/24 02:58:42;;;;;;;8.27;5.90;;;14.70;72.20;;;;;;5031120;28;20017;-77
2022/05/24 03:01:34;;;;;;;8.27;5.90;;;14.70;72.30;;;;;;5029575;28;20030;-78
2022/05/24 03:04:01;;;;;;;6.65;5.70;;;14.60;72.20;;;;;;5013119;28;20173;-77
2022/05/24 03:06:27;;;;;;;7.35;5.82;;;14.60;72.40;;;;;;5010921;28;20380;-77
2022/05/24 03:14:23;;;;;;;6.40;5.90;;;14.50;73.10;;;;;;5009126;28;20034;-77
2022/05/24 03:16:52;;;;;;;7.30;5.78;;;14.50;73.00;;;;;;5053837;28;20038;-77
2022/05/24 03:19:18;;;;;;;7.18;5.97;;;14.50;72.60;;;;;;5027627;28;20038;-77
2022/05/24 03:21:44;;;;;;;6.88;6.28;;;14.50;72.90;;;;;;5027503;28;20048;-77
2022/05/24 03:24:10;;;;;;;6.70;6.10;;;14.40;73.20;;;;;;5045412;28;20032;-77
2022/05/24 03:26:37;;;;;;;6.30;5.88;;;14.40;73.40;;;;;;5027641;28;20034;-78
2022/05/24 03:29:04;;;;;;;6.53;5.97;;;14.40;73.50;;;;;;5027277;28;20491;-78
2022/05/24 03:31:31;;;;;;;7.38;6.72;;;14.40;73.30;;;;;;5028266;28;20033;-77
2022/05/24 03:33:57;;;;;;;6.80;6.20;;;14.40;73.20;;;;;;5026729;28;20018;-78
2022/05/24 03:36:23;;;;;;;6.90;6.25;;;14.40;73.50;;;;;;5029522;28;20029;-78
2022/05/24 03:38:49;;;;;;;6.68;5.60;;;14.40;73.60;;;;;;5029518;28;20028;-78
2022/05/24 03:41:16;;;;;;;6.78;6.13;;;14.40;73.50;;;;;;5028496;28;20033;-78
2022/05/24 03:43:42;;;;;;;6.85;5.90;;;14.40;73.20;;;;;;5025253;28;20042;-78
2022/05/24 03:46:09;;;;;;;6.60;5.93;;;14.40;73.30;;;;;;5026949;28;20045;-78
2022/05/24 03:48:35;;;;;;;6.38;5.80;;;14.40;73.30;;;;;;5028446;28;20036;-78
2022/05/24 03:51:02;;;;;;;6.85;6.25;;;14.50;73.20;;;;;;5026999;28;20021;-78
2022/05/24 03:53:28;;;;;;;7.32;6.53;;;14.50;73.00;;;;;;5026618;28;20049;-78
2022/05/24 03:55:54;;;;;;;6.85;6.20;;;14.50;73.00;;;;;;5026982;28;20029;-78
2022/05/24 03:58:20;;;;;;;10.65;6.00;;;14.50;72.80;;;;;;5026735;28;20040;-78
2022/05/24 04:00:46;;;;;;;7.55;5.75;;;14.50;72.80;;;;;;5027153;28;20090;-78
2022/05/24 04:03:13;;;;;;;6.57;6.00;;;14.50;72.80;;;;;;5030637;28;20029;-78
2022/05/24 04:05:39;;;;;;;6.75;5.90;;;14.50;72.90;;;;;;5028078;28;20029;-78
2022/05/24 04:08:05;;;;;;;9.95;6.20;;;14.40;73.10;;;;;;5030701;28;20048;-78
2022/05/24 04:10:32;;;;;;;6.78;6.10;;;14.40;73.20;;;;;;5037153;28;20046;-78
2022/05/24 04:12:59;;;;;;;6.57;5.85;;;14.40;73.00;;;;;;5026153;28;20042;-78
2022/05/24 04:15:26;;;;;;;10.60;6.57;;;14.40;73.00;;;;;;5028306;28;20032;-78
2022/05/24 04:17:52;;;;;;;9.63;6.03;;;14.40;73.00;;;;;;5026530;28;20502;-78
2022/05/24 04:20:19;;;;;;;6.05;5.65;;;14.30;73.40;;;;;;5011588;28;20045;-78
2022/05/24 04:22:45;;;;;;;9.40;6.10;;;14.30;73.40;;;;;;5025437;28;20053;-78
2022/05/24 04:25:11;;;;;;;6.25;5.72;;;14.30;73.50;;;;;;5027041;28;20045;-78
2022/05/24 04:27:37;;;;;;;9.88;6.15;;;14.30;73.90;;;;;;5029492;28;20076;-78
2022/05/24 04:30:05;;;;;;;6.85;6.10;;;14.30;73.80;;;;;;5027924;28;20033;-77
2022/05/24 04:32:31;;;;;;;9.75;6.07;;;14.30;74.40;;;;;;5028328;28;20033;-78
2022/05/24 04:34:57;;;;;;;8.15;5.90;;;14.30;74.20;;;;;;5026523;28;20491;-78
2022/05/24 04:37:23;;;;;;;6.28;5.68;;;14.30;74.40;;;;;;5028431;28;20025;-78
2022/05/24 04:39:49;;;;;;;8.50;5.82;;;14.30;74.20;;;;;;5026211;28;20396;-77
2022/05/24 04:42:24;;;;;;;6.03;5.53;;;14.40;74.00;;;;;;5045279;28;20049;-78
2022/05/24 04:44:56;;;;;;;6.13;5.30;;;14.50;74.00;;;;;;5027542;28;20041;-78
2022/05/24 04:47:23;;;;;;;8.93;5.88;;;14.40;74.00;;;;;;5011204;28;20040;-77
2022/05/24 04:49:53;;;;;;;6.22;5.43;;;14.40;73.80;;;;;;5009128;28;20032;-78
2022/05/24 04:52:21;;;;;;;7.45;6.20;;;14.40;74.50;;;;;;5028058;28;20396;-78
2022/05/24 04:54:47;;;;;;;6.13;5.63;;;14.40;73.80;;;;;;5028122;28;20403;-78
2022/05/24 04:57:13;;;;;;;6.22;5.72;;;14.40;74.10;;;;;;5044854;28;20029;-78
2022/05/24 04:59:39;;;;;;;8.25;5.57;;;14.50;74.10;;;;;;5026088;28;20045;-78
2022/05/24 05:02:05;;;;;;;11.95;5.60;;;14.50;73.80;;;;;;5027219;28;20049;-78
2022/05/24 05:04:32;;;;;;;6.07;5.57;;;14.50;73.80;;;;;;5026506;28;20460;-78
2022/05/24 05:06:58;;;;;;;8.48;5.55;;;14.60;73.60;;;;;;5026663;28;20660;-78
2022/05/24 05:09:24;;;;;;;6.45;5.72;;;14.60;74.50;;;;;;5045220;28;20037;-78
2022/05/24 05:11:50;;;;;;;6.32;5.72;;;14.60;73.80;;;;;;5030524;28;20037;-78
2022/05/24 05:14:16;;;;;;;6.45;5.50;;;14.70;74.30;;;;;;5030107;28;20032;-78
2022/05/24 05:16:42;;;;;;;10.93;6.13;;;14.80;74.60;;;;;;5031138;28;20038;-78
2022/05/24 05:19:10;;;;;;;6.43;5.85;;;14.90;74.80;;;;;;5030218;28;20021;-79
2022/05/24 05:21:37;;;;;;;9.77;6.20;;;15.10;74.50;;;;;;5030955;28;20030;-78
2022/05/24 05:24:04;;;;;;;8.63;6.30;;;15.20;73.80;;;;;;5016007;28;20034;-78
2022/05/24 05:26:30;;;;;;;6.50;6.07;;;15.40;73.70;;;;;;5029867;28;20033;-78
2022/05/24 05:28:56;;;;;;;7.28;6.57;;;15.50;72.30;;;;;;5012024;28;20044;-78
2022/05/24 05:31:24;;;;;;;8.73;6.60;;;15.60;72.70;;;;;;5027544;28;20038;-78
2022/05/24 05:33:51;;;;;;;7.00;6.45;;;15.70;72.20;;;;;;5028886;28;20044;-78
2022/05/24 05:36:18;;;;;;;7.90;6.65;;;15.80;71.70;;;;;;5048198;28;20037;-79
2022/05/24 05:38:47;;;;;;;8.05;6.90;;;16.00;71.20;;;;;;5029559;28;20048;-78
2022/05/24 05:41:14;;;;;;;6.82;6.32;;;16.10;71.10;;;;;;5031172;28;20383;-79
2022/05/24 05:43:40;;;;;;;7.43;6.93;;;16.30;70.60;;;;;;5029352;28;20510;-78
2022/05/24 05:46:08;;;;;;;7.95;7.18;;;16.40;70.50;;;;;;5028977;28;20030;-79
2022/05/24 05:48:34;;;;;;;7.20;6.70;;;16.50;69.30;;;;;;5032003;28;20052;-79
2022/05/24 05:51:01;;;;;;;9.50;7.18;;;16.60;68.50;;;;;;5031177;28;20502;-79
2022/05/24 05:53:27;;;;;;;7.85;7.28;;;16.70;68.50;;;;;;5030836;28;20032;-78
2022/05/24 05:55:53;;;;;;;9.88;7.50;;;16.80;68.30;;;;;;5011533;28;20041;-78
2022/05/24 05:58:19;;;;;;;7.95;7.30;;;16.90;67.70;;;;;;5029498;28;20490;-78
2022/05/24 06:00:48;;;;;;;9.35;7.60;;;16.90;67.10;;;;;;5027959;28;20037;-79
2022/05/24 06:03:15;;;;;;;7.78;7.18;;;16.90;66.30;;;;;;5046774;28;20041;-79
2022/05/24 06:05:42;;;;;;;8.13;7.55;;;16.90;66.60;;;;;;5029068;28;20022;-79
2022/05/24 06:08:08;;;;;;;8.35;7.63;;;16.90;66.80;;;;;;5021243;28;20026;-79
2022/05/24 06:10:36;;;;;;;8.57;7.75;;;16.90;67.30;;;;;;5028851;28;20514;-79
2022/05/24 06:13:05;;;;;;;8.35;7.78;;;17.10;67.90;;;;;;5028676;28;20428;-79
2022/05/24 06:15:32;;;;;;;8.63;8.02;;;17.20;67.60;;;;;;5022589;28;20034;-79
2022/05/24 06:17:58;;;;;;;12.65;8.80;;;17.40;66.30;;;;;;5012084;28;20057;-79
2022/05/24 06:20:27;;;;;;;9.35;8.40;;;17.50;65.40;;;;;;5010741;28;20037;-79
2022/05/24 06:22:55;;;;;;;8.82;8.13;;;17.60;64.80;;;;;;5010236;28;20038;-79
2022/05/24 06:25:28;;;;;;;11.50;9.00;;;17.60;63.80;;;;;;5008878;28;20037;-79
2022/05/24 06:27:54;;;;;;;9.35;8.27;;;17.60;64.30;;;;;;4993866;28;20503;-79
2022/05/24 06:30:23;;;;;;;8.93;8.15;;;17.60;63.30;;;;;;5009660;28;20025;-79
2022/05/24 06:32:50;;;;;;;11.25;7.88;;;17.60;63.30;;;;;;5009150;28;20041;-79
2022/05/24 06:35:16;;;;;;;9.05;8.25;;;17.60;63.70;;;;;;5008653;28;20038;-79
2022/05/24 06:37:43;;;;;;;9.13;8.32;;;17.60;63.70;;;;;;5010231;28;20079;-79
2022/05/24 06:40:10;;;;;;;9.60;8.05;;;17.70;63.40;;;;;;5008473;28;20035;-79
2022/05/24 06:42:36;;;;;;;9.32;8.45;;;17.70;61.80;;;;;;5042618;28;20041;-79
2022/05/24 06:45:03;;;;;;;9.50;8.70;;;17.80;62.60;;;;;;5009557;28;20033;-78
2022/05/24 06:47:30;;;;;;;8.85;8.15;;;17.80;62.80;;;;;;5008428;28;20033;-79
2022/05/24 06:49:57;;;;;;;9.57;8.52;;;17.80;62.80;;;;;;5010082;28;20380;-79
2022/05/24 06:52:23;;;;;;;9.75;8.85;;;17.90;62.60;;;;;;5008593;28;20488;-79
2022/05/24 06:54:49;;;;;;;9.70;8.93;;;18.10;62.70;;;;;;5040968;28;20030;-79
2022/05/24 06:57:15;;;;;;;9.85;9.05;;;18.20;62.90;;;;;;5011480;28;20029;-79
2022/05/24 07:02:26;;;;;;;9.90;9.02;;;18.40;59.80;;;;;;5007786;28;20057;-79
2022/05/24 07:04:58;;;;;;;10.48;9.77;;;18.40;59.20;;;;;;5009633;28;20018;-79
2022/05/24 07:07:24;;;;;;;10.02;9.23;;;18.20;59.30;;;;;;5008419;28;20037;-79
2022/05/24 07:09:51;;;;;;;10.63;9.82;;;18.10;59.70;;;;;;5008529;28;20061;-79
2022/05/24 07:12:19;;;;;;;10.50;9.57;;;18.10;61.10;;;;;;5026430;28;20025;-79
2022/05/24 07:14:45;;;;;;;9.63;9.02;;;18.10;59.20;;;;;;5008253;28;20026;-79
2022/05/24 07:17:11;;;;;;;10.48;9.68;;;18.10;59.60;;;;;;5009306;28;20026;-79
2022/05/24 07:19:38;;;;;;;10.63;9.75;;;18.20;58.80;;;;;;5007945;28;20391;-79
2022/05/24 07:22:06;;;;;;;10.85;9.90;;;18.20;58.70;;;;;;5008390;28;20038;-79
2022/05/24 07:24:32;;;;;;;11.13;10.02;;;18.30;58.40;;;;;;5006690;28;20042;-80
2022/05/24 07:26:58;;;;;;;11.07;10.38;;;18.30;58.50;;;;;;5009300;28;20471;-80
2022/05/24 07:29:24;;;;;;;9.85;9.25;;;18.30;58.40;;;;;;5009044;28;20034;-80
2022/05/24 07:31:50;;;;;;;10.20;9.27;;;18.20;58.40;;;;;;5007438;28;20033;-80
2022/05/24 07:34:16;;;;;;;9.73;9.02;;;18.10;58.50;;;;;;5008988;28;20045;-80
2022/05/24 07:36:43;;;;;;;10.20;9.50;;;18.10;58.40;;;;;;5041809;28;20383;-80
2022/05/24 07:39:09;;;;;;;10.60;9.70;;;18.10;57.90;;;;;;5010023;28;20026;-80
2022/05/24 07:47:06;;;;;;;10.60;9.80;;;18.00;56.50;;;;;;5007140;28;20052;-80
2022/05/24 07:49:33;;;;;;;9.95;9.32;;;18.00;56.80;;;;;;5007713;28;20480;-80
2022/05/24 07:51:59;;;;;;;9.82;9.32;;;18.10;56.80;;;;;;5007737;28;20035;-80
2022/05/24 07:54:25;;;;;;;10.77;9.88;;;18.00;57.10;;;;;;5009399;28;20519;-80
2022/05/24 07:56:51;;;;;;;10.32;9.52;;;18.00;56.00;;;;;;5008064;28;20397;-80
2022/05/24 07:59:17;;;;;;;10.82;9.70;;;18.00;56.40;;;;;;5007598;28;20037;-80
2022/05/24 08:01:45;;;;;;;10.15;9.15;;;17.90;55.90;;;;;;5020975;28;20463;-80
2022/05/24 08:04:11;;;;;;;10.65;9.30;;;18.00;57.40;;;;;;5027150;28;20034;-80
2022/05/24 08:06:37;;;;;;;10.45;9.63;;;18.10;57.00;;;;;;5029478;28;20029;-80
2022/05/24 08:09:03;;;;;;;10.35;9.55;;;18.10;56.30;;;;;;5028264;28;20029;-80
2022/05/24 08:11:30;;;;;;;10.93;9.88;;;18.20;57.00;;;;;;5009176;28;20112;-80
2022/05/24 08:13:58;;;;;;;10.38;9.68;;;18.10;56.30;;;;;;5025895;28;20471;-80
2022/05/24 08:16:25;;;;;;;9.93;9.27;;;18.10;56.10;;;;;;5026581;28;20038;-80
2022/05/24 08:18:51;;;;;;;10.63;9.60;;;18.10;56.50;;;;;;5026301;28;20037;-80
2022/05/24 08:21:18;;;;;;;11.00;10.10;;;18.00;56.20;;;;;;5030473;28;20029;-80
2022/05/24 08:23:44;;;;;;;10.38;9.48;;;17.90;56.00;;;;;;5026756;28;20054;-80
2022/05/24 08:26:10;;;;;;;10.30;9.50;;;18.00;57.00;;;;;;5026963;28;20033;-80
2022/05/24 08:28:36;;;;;;;11.00;9.90;;;18.00;56.20;;;;;;5028399;28;20033;-80
2022/05/24 08:31:02;;;;;;;11.07;10.18;;;18.10;56.10;;;;;;5010424;28;20036;-80
2022/05/24 08:33:28;;;;;;;10.57;9.75;;;18.20;56.90;;;;;;5028483;28;20033;-80
2022/05/24 08:35:55;;;;;;;11.52;10.52;;;18.30;57.00;;;;;;5026715;28;20029;-80
2022/05/24 08:38:22;;;;;;;10.75;9.93;;;18.40;56.00;;;;;;4995503;28;20377;-80
2022/05/24 08:40:48;;;;;;;11.30;10.40;;;18.50;56.40;;;;;;5011122;28;20038;-80
2022/05/24 08:43:30;;;;;;;11.30;10.30;;;18.60;55.70;;;;;;5030642;28;20756;-80
2022/05/24 08:48:46;;;;;;;11.32;10.63;;;18.90;55.30;;;;;;5036772;28;20044;-81
2022/05/24 08:51:28;;;;;;;11.80;10.73;;;19.00;53.90;;;;;;5033215;28;20032;-81
2022/05/24 08:54:19;;;;;;;11.18;10.27;;;19.00;54.60;;;;;;5032646;28;20379;-81
2022/05/24 08:56:59;;;;;;;12.00;11.10;;;19.10;54.00;;;;;;5015139;28;20428;-80
2022/05/24 08:59:30;;;;;;;11.55;10.65;;;19.10;54.10;;;;;;5031849;28;20028;-81
2022/05/24 09:01:56;;;;;;;11.60;10.45;;;19.20;54.10;;;;;;5031367;28;20411;-80
2022/05/24 09:04:22;;;;;;;12.15;11.25;;;19.40;53.90;;;;;;5008917;28;20061;-80
2022/05/24 09:06:52;;;;;;;12.55;11.73;;;19.60;53.60;;;;;;5045918;28;20021;-80
2022/05/24 09:09:26;;;;;;;14.13;11.63;;;19.80;53.10;;;;;;5033601;28;20406;-82
2022/05/24 09:12:17;;;;;;;13.02;11.88;;;20.00;52.70;;;;;;5036656;28;20034;-80
2022/05/24 09:15:06;;;;;;;13.25;12.35;;;20.20;52.40;;;;;;5027871;28;20034;-80
2022/05/24 09:17:52;;;;;;;13.23;12.43;;;20.50;52.90;;;;;;5027954;28;20033;-82
2022/05/24 09:20:24;;;;;;;13.90;12.57;;;20.80;51.40;;;;;;5014694;28;20480;-81
2022/05/24 09:23:14;;;;;;;13.13;11.93;;;21.00;50.80;;;;;;5031367;28;20045;-81
2022/05/24 09:25:56;;;;;;;14.18;13.02;;;21.20;50.10;;;;;;5024373;28;20037;-81
2022/05/24 09:28:57;;;;;;;13.65;12.85;;;21.30;49.00;;;;;;5031445;28;20499;-81
2022/05/24 09:31:36;;;;;;;13.10;11.98;;;21.40;48.00;;;;;;5033343;28;20488;-81
2022/05/24 09:34:24;;;;;;;12.82;11.95;;;21.40;48.20;;;;;;5015213;28;20030;-81
2022/05/24 09:36:55;;;;;;;13.77;12.80;;;21.50;47.30;;;;;;5028446;28;20038;-81
2022/05/24 09:39:30;;;;;;;14.57;13.48;;;21.50;48.20;;;;;;5029310;28;20031;-81
2022/05/24 09:42:07;;;;;;;14.27;13.38;;;21.40;47.40;;;;;;5031992;28;20045;-81
2022/05/24 09:44:49;;;;;;;14.63;13.60;;;21.20;48.30;;;;;;5029543;28;20037;-81
2022/05/24 09:47:32;;;;;;;14.65;13.63;;;21.10;48.70;;;;;;5030771;28;20391;-81
2022/05/24 09:50:22;;;;;;;13.52;12.52;;;21.10;48.40;;;;;;5029462;28;20124;-81
2022/05/24 09:53:06;;;;;;;13.20;12.18;;;21.20;47.90;;;;;;5029277;28;20045;-80
2022/05/24 09:56:08;;;;;;;13.35;12.57;;;21.40;48.00;;;;;;5029305;28;20056;-81
2022/05/24 09:58:57;;;;;;;13.68;12.93;;;21.60;47.60;;;;;;5021809;28;20045;-81
2022/05/24 10:01:36;;;;;;;14.15;13.13;;;21.80;47.30;;;;;;5023729;28;20033;-81
2022/05/24 10:04:42;;;;;;;14.93;13.93;;;21.80;47.10;;;;;;5013407;28;20048;-81
2022/05/24 10:07:20;;;;;;;13.20;12.30;;;21.60;47.00;;;;;;4957397;28;20034;-81
2022/05/24 10:10:01;;;;;;;13.55;12.75;;;21.50;47.40;;;;;;4973021;28;20043;-80
2022/05/24 10:12:39;;;;;;;;;;;21.40;46.70;;;;;;4971365;28;20131;-81
2022/05/24 10:15:10;;;;;;;12.63;11.73;;;21.40;47.40;;;;;;4970552;28;19913;-80
2022/05/24 10:17:45;;;;;;;13.77;12.77;;;21.50;48.30;;;;;;4969875;28;20051;-81
2022/05/24 10:20:27;;;;;;;13.80;13.05;;;21.40;47.90;;;;;;4973919;28;20034;-80
2022/05/24 10:23:05;;;;;;;13.48;12.57;;;21.60;47.80;;;;;;4970304;28;20095;-81
2022/05/24 10:25:31;;;;;;;13.60;12.60;;;21.70;48.60;;;;;;4970303;28;20485;-80
2022/05/24 10:28:13;;;;;;;12.77;11.90;;;21.70;47.40;;;;;;4970357;28;20477;-81
2022/05/24 10:30:50;;;;;;;13.93;13.13;;;21.70;47.80;;;;;;4984426;28;20046;-80
2022/05/24 10:39:45;;;;;;;13.98;13.18;;;21.50;47.50;;;;;;4981194;28;20054;-81
2022/05/24 10:42:23;;;;;;;13.20;12.25;;;21.80;47.30;;;;;;5015553;28;20053;-80
2022/05/24 10:45:09;;;;;;;13.45;12.68;;;22.10;47.00;;;;;;5029833;28;20044;-81
2022/05/24 10:47:55;;;;;;;13.88;12.95;;;22.20;46.30;;;;;;5015385;28;20128;-81
2022/05/24 10:50:35;;;;;;;14.23;13.43;;;22.20;46.40;;;;;;5027276;28;20049;-81
2022/05/24 10:53:05;;;;;;;13.88;13.00;;;22.10;46.10;;;;;;5029894;28;20025;-81
2022/05/24 10:55:32;;;;;;;14.93;14.00;;;22.10;46.20;;;;;;5029796;28;20025;-81
2022/05/24 10:58:00;;;;;;;14.55;13.55;;;22.30;45.90;;;;;;5011988;28;20277;-81
2022/05/24 11:00:40;;;;;;;14.43;13.50;;;22.40;44.90;;;;;;5006069;28;20030;-81
2022/05/24 11:03:10;;;;;;;15.52;14.52;;;22.50;45.10;;;;;;4993902;28;20048;-81
2022/05/24 11:05:37;;;;;;;14.57;13.68;;;22.70;43.20;;;;;;4992282;28;20034;-81
2022/05/24 11:08:34;;;;;;;15.32;14.32;;;22.80;44.80;;;;;;5007055;28;20030;-81
2022/05/24 11:11:24;;;;;;;15.50;14.50;;;23.00;43.20;;;;;;4995638;28;20511;-81
2022/05/24 11:14:08;;;;;;;15.15;14.35;;;23.00;43.90;;;;;;4969248;28;20038;-81
2022/05/24 11:16:47;;;;;;;13.70;12.82;;;23.00;43.00;;;;;;4977377;28;20518;-81
2022/05/24 11:19:36;;;;;;;14.20;13.20;;;23.00;44.20;;;;;;4972392;28;20047;-81
2022/05/24 11:22:28;;;;;;;14.68;13.57;;;22.90;43.60;;;;;;4959625;28;20054;-81
2022/05/24 11:25:06;;;;;;;14.00;13.02;;;22.80;43.10;;;;;;4958637;28;20054;-81
2022/05/24 11:27:36;;;;;;;14.40;13.40;;;22.70;43.30;;;;;;4986222;28;20056;-81
2022/05/24 11:30:11;;;;;;;13.95;13.07;;;22.80;44.00;;;;;;4988856;28;20026;-80
2022/05/24 11:32:45;;;;;;;14.70;13.80;;;22.70;43.40;;;;;;4987771;28;20034;-81
2022/05/24 11:35:18;;;;;;;13.75;12.85;;;22.50;43.70;;;;;;4961118;28;20043;-81
2022/05/24 11:37:46;;;;;;;14.55;13.50;;;22.40;44.20;;;;;;4995204;28;20513;-81
2022/05/24 11:40:36;;;;;;;14.48;13.57;;;22.40;44.10;;;;;;4968766;28;20584;-81
2022/05/24 11:43:04;;;;;;;13.48;12.68;;;22.30;43.90;;;;;;4956489;28;20509;-80
2022/05/24 11:45:34;;;;;;;14.70;13.80;;;22.20;44.90;;;;;;4985285;28;20035;-80
2022/05/24 11:48:06;;;;;;;14.63;13.60;;;22.20;45.20;;;;;;4989005;28;20030;-81
2022/05/24 11:50:39;;;;;;;14.38;13.50;;;22.20;45.40;;;;;;4989296;28;20046;-81
2022/05/24 11:53:31;;;;;;;14.32;13.30;;;22.30;45.80;;;;;;5016830;28;20060;-81
2022/05/24 11:55:57;;;;;;;14.32;13.52;;;22.30;46.40;;;;;;5007790;28;20388;-81
2022/05/24 11:58:42;;;;;;;13.68;12.77;;;22.30;45.50;;;;;;5007935;28;20038;-81
2022/05/24 12:01:17;;;;;;;14.35;13.23;;;22.30;45.70;;;;;;5009858;28;20485;-80
2022/05/24 12:10:21;;;;;;;11.98;11.18;;;21.40;52.60;;;;;;5007244;28;20042;-81
2022/05/24 12:13:02;;;;;;;10.60;9.75;;;21.00;53.80;;;;;;5024579;28;20058;-81
2022/05/24 12:15:33;;;;;;;11.27;10.18;;;20.70;55.50;;;;;;5010094;28;20049;-81
2022/05/24 12:17:59;;;;;;;10.48;9.23;;;20.60;55.80;;;;;;5034082;28;20032;-81
2022/05/24 12:20:26;;;;;;;9.80;9.20;;;20.30;56.80;;;;;;5031016;28;20044;-80
2022/05/24 12:23:04;;;;;;;9.93;8.95;;;20.10;57.10;;;;;;5031002;28;20033;-80
2022/05/24 12:25:55;;;;;;;9.10;8.40;;;19.80;58.30;;;;;;5031027;28;20029;-80
2022/05/24 12:28:23;;;;;;;9.68;8.95;;;19.70;58.90;;;;;;5031061;28;20033;-80
2022/05/24 12:30:49;;;;;;;10.75;9.73;;;19.60;58.70;;;;;;5029831;28;20030;-80
2022/05/24 12:33:24;;;;;;;15.07;10.73;;;19.70;58.50;;;;;;5049501;28;20029;-80
2022/05/24 12:36:22;;;;;;;10.45;9.80;;;19.70;59.20;;;;;;5031097;28;20037;-80
2022/05/24 12:38:51;;;;;;;12.18;11.40;;;19.60;58.60;;;;;;5024390;28;20471;-80
2022/05/24 12:41:46;;;;;;;10.95;10.35;;;19.60;58.40;;;;;;5013042;28;20384;-80
2022/05/24 12:44:38;;;;;;;11.27;10.57;;;19.80;58.50;;;;;;5015194;28;20049;-80
2022/05/24 12:47:05;;;;;;;11.18;10.68;;;19.90;57.50;;;;;;5031050;28;20494;-80
2022/05/24 12:49:34;;;;;;;11.35;10.65;;;19.80;55.60;;;;;;5030385;28;20506;-80
2022/05/24 12:52:24;;;;;;;10.70;10.18;;;19.80;55.90;;;;;;5030014;28;20026;-80
2022/05/24 12:54:51;;;;;;;11.13;10.55;;;19.90;56.10;;;;;;5030000;28;20026;-80
2022/05/24 12:57:19;;;;;;;11.60;11.00;;;20.10;56.70;;;;;;5049174;28;20034;-80
2022/05/24 12:59:59;;;;;;;11.35;10.75;;;20.10;54.10;;;;;;5012401;28;20025;-80
2022/05/24 13:02:44;;;;;;;11.20;10.60;;;20.20;55.00;;;;;;5029265;28;20491;-80
2022/05/24 13:05:23;;;;;;;11.18;10.68;;;20.40;53.90;;;;;;5030019;28;20053;-80
2022/05/24 13:07:53;;;;;;;11.88;11.27;;;20.60;52.50;;;;;;5032159;28;20021;-80
2022/05/24 13:10:24;;;;;;;12.77;11.90;;;20.80;52.00;;;;;;5042614;28;20529;-80
2022/05/24 13:12:55;;;;;;;11.98;11.32;;;21.00;50.50;;;;;;5014334;28;20030;-80
2022/05/24 13:15:42;;;;;;;12.35;11.75;;;21.20;49.30;;;;;;5011733;28;20419;-80
2022/05/24 13:18:16;;;;;;;12.45;11.75;;;21.20;49.30;;;;;;5032202;28;20037;-80
2022/05/24 13:20:53;;;;;;;13.50;12.70;;;21.20;49.30;;;;;;5029051;28;20025;-81
2022/05/24 13:23:22;;;;;;;13.18;12.48;;;21.20;47.90;;;;;;5015106;28;20041;-80
2022/05/24 13:25:57;;;;;;;12.68;11.88;;;21.30;47.70;;;;;;5029983;28;20040;-80
2022/05/24 13:28:33;;;;;;;11.95;11.32;;;21.20;48.90;;;;;;5030345;28;20108;-80
2022/05/24 13:33:57;;;;;;;11.85;11.05;;;20.90;49.40;;;;;;5031052;28;20060;-81